Time;durP1;ratioP1;P1;durP2;ratioP2;P2;SDS_P1;SDS_P2;PMS_P1;PMS_P2;Temp;Humidity;BMP_temperature;BMP_pressure;BME280_temperature;BME280_humidity;BME280_pressure;Samples;Min_cycle;Max_cycle;Signal;HPM_P1;HPM_P2
2023/04/26 00:00:16;;;;;;;0.50;0.50;;;;;;;5.21;89.14;96910.47;29395;273;63009;-61
2023/04/26 00:00:52;;;;;;;0.50;0.50;;;;;;;5.22;88.86;96908.59;29395;218;63004;-61
2023/04/26 00:01:26;;;;;;;0.50;0.50;;;;;;;5.21;89.06;96912.34;29395;210;64013;-60
2023/04/26 00:01:59;;;;;;;0.60;0.60;;;;;;;5.23;88.82;96910.19;29395;215;63004;-56
2023/04/26 00:03:39;;;;;;;0.59;0.59;;;;;;;5.23;86.93;96904.81;88178;209;64005;-55
2023/04/26 00:04:10;;;;;;;0.50;0.50;;;;;;;5.24;86.88;96912.63;29394;256;64009;-62
2023/04/26 00:04:41;;;;;;;0.50;0.50;;;;;;;5.24;87.28;96907.25;29394;236;64005;-55
2023/04/26 00:05:13;;;;;;;0.50;0.50;;;;;;;5.25;86.91;96908.06;29395;250;63009;-56
2023/04/26 00:05:44;;;;;;;0.60;0.60;;;;;;;5.28;87.07;96907.56;29395;198;63008;-56
2023/04/26 00:06:17;;;;;;;0.60;0.60;;;;;;;5.33;86.41;96911.09;29395;218;63009;-57
2023/04/26 00:06:48;;;;;;;0.50;0.50;;;;;;;5.36;85.86;96910.59;29395;213;63005;-60
2023/04/26 00:07:27;;;;;;;0.60;0.60;;;;;;;5.35;85.47;96908.97;29395;214;63020;-57
2023/04/26 00:08:00;;;;;;;0.50;0.50;;;;;;;5.38;85.32;96910.31;29394;243;64009;-62
2023/04/26 00:08:31;;;;;;;0.60;0.60;;;;;;;5.38;85.13;96907.63;29395;267;63009;-57
2023/04/26 00:09:04;;;;;;;0.50;0.50;;;;;;;5.35;84.16;96903.56;29395;218;63004;-55
2023/04/26 00:09:35;;;;;;;0.55;0.55;;;;;;;5.32;85.34;96908.66;29395;212;63009;-61
2023/04/26 00:10:08;;;;;;;0.60;0.60;;;;;;;5.28;85.54;96905.69;29395;244;63004;-55
2023/04/26 00:10:39;;;;;;;0.50;0.50;;;;;;;5.28;85.95;96907.56;29394;223;64013;-54
2023/04/26 00:11:11;;;;;;;0.50;0.50;;;;;;;5.28;86.17;96911.06;29395;236;63004;-55
2023/04/26 00:11:45;;;;;;;0.60;0.60;;;;;;;5.30;86.09;96911.59;29395;309;63009;-55
2023/04/26 00:12:17;;;;;;;0.50;0.50;;;;;;;5.31;86.18;96901.66;29395;244;63005;-55
2023/04/26 00:12:48;;;;;;;0.60;0.60;;;;;;;5.34;86.48;96907.34;29395;206;63012;-55
2023/04/26 00:13:20;;;;;;;0.50;0.50;;;;;;;5.36;85.87;96913.28;29395;218;63005;-54
2023/04/26 00:13:51;;;;;;;0.60;0.60;;;;;;;5.38;85.38;96911.12;29395;269;63018;-55
2023/04/26 00:14:22;;;;;;;0.50;0.50;;;;;;;5.38;84.44;96907.63;29395;237;63010;-60
2023/04/26 00:14:53;;;;;;;0.60;0.60;;;;;;;5.36;84.65;96910.59;29395;230;63017;-62
2023/04/26 00:15:28;;;;;;;0.50;0.50;;;;;;;5.36;85.45;96910.59;29395;219;63005;-60
2023/04/26 00:16:00;;;;;;;0.60;0.60;;;;;;;5.34;85.68;96907.34;29394;206;64013;-55
2023/04/26 00:16:31;;;;;;;0.60;0.60;;;;;;;5.34;85.45;96918.09;29395;231;63004;-62
2023/04/26 00:17:05;;;;;;;2.03;1.95;;;;;;;5.35;85.38;96910.84;29395;223;63017;-61
2023/04/26 00:17:37;;;;;;;0.50;0.50;;;;;;;5.34;85.14;96910.03;29395;218;63004;-63
2023/04/26 00:18:08;;;;;;;0.60;0.60;;;;;;;5.33;85.50;96905.72;29394;209;64013;-57
2023/04/26 00:18:39;;;;;;;0.50;0.50;;;;;;;5.34;85.53;96912.72;29394;227;64004;-57
2023/04/26 00:19:11;;;;;;;0.50;0.50;;;;;;;5.33;86.18;96911.09;29395;197;63009;-56
2023/04/26 00:19:44;;;;;;;0.60;0.60;;;;;;;5.32;86.15;96917.53;29395;214;63019;-57
2023/04/26 00:20:15;;;;;;;0.55;0.55;;;;;;;5.31;86.24;96913.22;29395;197;63009;-56
2023/04/26 00:20:47;;;;;;;0.60;0.60;;;;;;;5.32;86.84;96909.47;29394;223;64009;-57
2023/04/26 00:21:18;;;;;;;0.60;0.60;;;;;;;5.30;86.89;96910.81;29395;223;63009;-56
2023/04/26 00:21:49;;;;;;;0.50;0.50;;;;;;;5.27;86.67;96911.31;29395;216;63011;-61
2023/04/26 00:22:20;;;;;;;0.60;0.60;;;;;;;5.22;86.66;96909.41;29394;221;64009;-63
2023/04/26 00:22:52;;;;;;;0.50;0.50;;;;;;;5.18;86.54;96912.88;29395;257;63004;-57
2023/04/26 00:23:23;;;;;;;0.50;0.50;;;;;;;5.17;86.81;96912.06;29395;268;63023;-62
2023/04/26 00:23:55;;;;;;;0.50;0.50;;;;;;;5.18;87.07;96911.00;29395;216;63004;-55
2023/04/26 00:24:26;;;;;;;0.52;0.52;;;;;;;5.16;87.32;96910.44;29395;240;63004;-55
2023/04/26 00:24:58;;;;;;;0.60;0.60;;;;;;;5.21;88.47;96907.78;29395;228;63004;-61
2023/04/26 00:25:29;;;;;;;0.50;0.50;;;;;;;5.18;88.19;96905.63;29395;223;63009;-55
2023/04/26 00:26:00;;;;;;;0.60;0.60;;;;;;;5.21;87.95;96912.34;29394;202;64008;-55
2023/04/26 00:26:33;;;;;;;0.50;0.50;;;;;;;5.20;88.59;96902.69;29395;215;63009;-61
2023/04/26 00:27:08;;;;;;;0.60;0.60;;;;;;;5.20;89.09;96906.16;29395;231;63005;-56
2023/04/26 00:27:39;;;;;;;0.50;0.50;;;;;;;5.19;88.50;96907.25;29395;222;63023;-61
2023/04/26 00:28:12;;;;;;;0.50;0.50;;;;;;;5.17;88.41;96912.06;29395;197;63005;-62
2023/04/26 00:28:44;;;;;;;0.60;0.60;;;;;;;5.16;88.75;96905.06;29394;239;64013;-55
2023/04/26 00:29:15;;;;;;;0.50;0.50;;;;;;;5.17;88.49;96906.69;29395;226;63005;-62
2023/04/26 00:29:47;;;;;;;0.50;0.50;;;;;;;5.18;88.52;96911.00;29394;218;64013;-61
2023/04/26 00:30:19;;;;;;;0.52;0.52;;;;;;;5.18;88.57;96911.00;29395;237;63004;-57
2023/04/26 00:30:51;;;;;;;0.50;0.50;;;;;;;5.16;88.53;96907.75;29395;250;63009;-56
2023/04/26 00:31:22;;;;;;;0.60;0.60;;;;;;;5.14;87.82;96901.81;29395;218;63004;-56
2023/04/26 00:31:53;;;;;;;0.60;0.60;;;;;;;5.14;88.07;96907.19;29395;252;63009;-55
2023/04/26 00:32:25;;;;;;;0.60;0.60;;;;;;;5.14;88.24;96901.81;29395;225;63004;-56
2023/04/26 00:32:57;;;;;;;0.50;0.50;;;;;;;5.13;88.80;96905.59;29395;212;63008;-56
2023/04/26 00:33:29;;;;;;;0.50;0.50;;;;;;;5.12;88.48;96908.53;29395;224;63005;-56
2023/04/26 00:34:00;;;;;;;0.60;0.60;;;;;;;5.06;87.19;96904.97;29395;267;63009;-55
2023/04/26 00:34:35;;;;;;;0.55;0.55;;;;;;;5.02;87.12;96907.37;29395;252;63005;-56
2023/04/26 00:35:08;;;;;;;0.55;0.55;;;;;;;5.03;87.37;96902.81;29394;206;64013;-56
2023/04/26 00:35:39;;;;;;;0.50;0.50;;;;;;;5.01;87.34;96903.06;29395;207;63005;-62
2023/04/26 00:36:13;;;;;;;0.52;0.52;;;;;;;5.00;87.05;96906.00;29395;231;63009;-55
2023/04/26 00:36:44;;;;;;;0.50;0.50;;;;;;;5.00;87.66;96900.63;29395;230;63005;-55
2023/04/26 00:37:16;;;;;;;0.60;0.60;;;;;;;5.00;87.45;96906.81;29395;206;63009;-62
2023/04/26 00:37:47;;;;;;;0.50;0.50;;;;;;;5.02;87.84;96903.88;29395;197;63004;-58
2023/04/26 00:38:18;;;;;;;0.60;0.60;;;;;;;5.03;87.51;96900.13;29395;278;63009;-55
2023/04/26 00:38:50;;;;;;;0.50;0.50;;;;;;;5.03;87.10;96905.50;29395;227;63004;-56
2023/04/26 00:39:21;;;;;;;0.50;0.50;;;;;;;5.03;85.28;96902.81;29395;240;63009;-56
2023/04/26 00:39:52;;;;;;;0.50;0.50;;;;;;;5.04;85.76;96907.13;29395;219;63004;-56
2023/04/26 00:40:23;;;;;;;0.60;0.60;;;;;;;5.05;85.75;96903.38;29394;217;64013;-60
2023/04/26 00:40:55;;;;;;;0.50;0.50;;;;;;;5.05;85.61;96904.16;29395;282;63005;-57
2023/04/26 00:41:26;;;;;;;0.60;0.60;;;;;;;5.05;84.54;96906.06;29395;207;63009;-56
2023/04/26 00:41:58;;;;;;;0.50;0.50;;;;;;;5.03;84.99;96900.13;29395;221;63005;-55
2023/04/26 00:42:29;;;;;;;0.57;0.57;;;;;;;5.02;85.01;96904.69;29395;311;63009;-56
2023/04/26 00:43:02;;;;;;;0.50;0.50;;;;;;;5.02;85.56;96899.31;29394;213;64005;-55
2023/04/26 00:43:33;;;;;;;0.50;0.50;;;;;;;5.04;85.48;96901.75;29395;229;63009;-55
2023/04/26 00:44:05;;;;;;;0.60;0.60;;;;;;;5.03;84.69;96905.50;29395;273;63005;-62
2023/04/26 00:44:40;;;;;;;0.50;0.50;;;;;;;4.97;84.12;96899.25;29395;240;63009;-62
2023/04/26 00:45:12;;;;;;;0.60;0.60;;;;;;;4.94;84.16;96899.78;29395;275;63004;-62
2023/04/26 00:45:47;;;;;;;0.60;0.60;;;;;;;4.95;84.48;96908.66;29394;210;64013;-62
2023/04/26 00:46:20;;;;;;;0.60;0.60;;;;;;;4.94;84.94;96901.66;29395;209;63004;-62
2023/04/26 00:46:52;;;;;;;0.50;0.50;;;;;;;4.96;85.37;96894.13;29395;208;63009;-56
2023/04/26 00:47:25;;;;;;;0.50;0.50;;;;;;;4.98;85.62;96908.13;29395;218;63000;-56
2023/04/26 00:48:00;;;;;;;0.60;0.60;;;;;;;4.98;85.97;96908.94;29395;370;63008;-60
2023/04/26 00:48:32;;;;;;;0.60;0.60;;;;;;;4.99;86.17;96909.75;29395;221;63005;-56
2023/04/26 00:49:03;;;;;;;0.60;0.60;;;;;;;4.99;86.21;96909.75;29395;221;63009;-56
2023/04/26 00:49:35;;;;;;;0.50;0.50;;;;;;;5.00;86.42;96911.38;29395;214;63005;-56
2023/04/26 00:50:07;;;;;;;0.50;0.50;;;;;;;4.99;86.15;96905.19;29395;196;63024;-56
2023/04/26 00:50:39;;;;;;;0.50;0.50;;;;;;;4.95;86.10;96904.09;29395;345;63005;-56
2023/04/26 00:51:11;;;;;;;0.50;0.50;;;;;;;4.98;86.14;96908.13;29394;253;64013;-56
2023/04/26 00:51:44;;;;;;;0.50;0.50;;;;;;;4.97;86.37;96906.50;29395;202;63005;-56
2023/04/26 00:52:16;;;;;;;0.60;0.60;;;;;;;4.97;86.05;96910.03;29395;214;63009;-56
2023/04/26 00:52:48;;;;;;;0.50;0.50;;;;;;;4.97;85.69;96911.91;29395;215;63004;-56
2023/04/26 00:53:20;;;;;;;0.60;0.60;;;;;;;4.97;86.22;96906.50;29395;202;63018;-56
2023/04/26 00:53:53;;;;;;;0.52;0.52;;;;;;;4.98;86.34;96905.44;29395;236;63004;-56
2023/04/26 00:54:24;;;;;;;0.60;0.60;;;;;;;4.96;86.11;96908.41;29395;205;63015;-59
2023/04/26 00:54:56;;;;;;;0.50;0.50;;;;;;;4.98;86.40;96913.53;29395;362;63004;-60
2023/04/26 00:55:27;;;;;;;0.60;0.60;;;;;;;4.98;86.19;96913.53;29395;199;63008;-55
2023/04/26 00:56:00;;;;;;;0.60;0.60;;;;;;;5.01;86.41;96902.25;29395;216;63005;-56
2023/04/26 00:56:32;;;;;;;0.50;0.50;;;;;;;5.07;84.74;96914.69;29394;220;64014;-56
2023/04/26 00:57:05;;;;;;;0.50;0.50;;;;;;;5.09;84.09;96915.22;29395;223;63005;-56
2023/04/26 00:57:39;;;;;;;0.50;0.50;;;;;;;5.10;83.43;96922.22;29395;209;63009;-56
2023/04/26 00:58:14;;;;;;;0.60;0.60;;;;;;;5.13;83.53;96915.53;29395;265;63000;-55
2023/04/26 00:58:45;;;;;;;0.50;0.50;;;;;;;5.15;83.19;96908.81;29395;225;63009;-56
2023/04/26 00:59:19;;;;;;;0.55;0.55;;;;;;;5.18;82.89;96912.88;29395;224;63005;-55
2023/04/26 00:59:50;;;;;;;0.50;0.50;;;;;;;5.18;82.44;96913.69;29395;215;63009;-56
2023/04/26 01:00:22;;;;;;;0.60;0.60;;;;;;;5.20;82.52;96910.75;29395;196;63014;-56
2023/04/26 01:00:53;;;;;;;0.50;0.50;;;;;;;5.14;82.58;96907.19;29395;304;63009;-56
2023/04/26 01:01:25;;;;;;;0.60;0.60;;;;;;;5.18;82.21;96905.63;29395;218;63004;-56
2023/04/26 01:01:56;;;;;;;0.60;0.60;;;;;;;5.18;81.94;96911.00;29394;196;64013;-62
2023/04/26 01:02:27;;;;;;;0.50;0.50;;;;;;;5.18;81.49;96913.69;29395;218;63004;-56
2023/04/26 01:02:59;;;;;;;0.50;0.50;;;;;;;5.17;80.60;96911.25;29395;218;63026;-62
2023/04/26 01:03:31;;;;;;;0.60;0.60;;;;;;;5.14;80.91;96912.59;29395;218;63005;-56
2023/04/26 01:04:03;;;;;;;0.60;0.60;;;;;;;5.13;80.99;96916.34;29395;210;63009;-56
2023/04/26 01:04:40;;;;;;;0.60;0.60;;;;;;;5.12;81.66;96913.91;29395;199;63005;-56
2023/04/26 01:05:13;;;;;;;0.60;0.60;;;;;;;5.12;81.91;96912.03;29395;231;63009;-56
2023/04/26 01:05:45;;;;;;;0.60;0.60;;;;;;;5.13;82.49;96921.72;29395;356;63005;-55
2023/04/26 01:06:16;;;;;;;0.62;0.62;;;;;;;5.14;82.12;96912.59;29395;243;63009;-61
2023/04/26 01:06:48;;;;;;;0.50;0.50;;;;;;;5.13;82.21;96915.53;29395;237;63005;-56
2023/04/26 01:07:19;;;;;;;0.60;0.60;;;;;;;5.13;82.49;96920.91;29394;208;64013;-55
2023/04/26 01:07:51;;;;;;;0.60;0.60;;;;;;;5.11;82.47;96913.09;29395;269;63004;-63
2023/04/26 01:08:23;;;;;;;0.50;0.50;;;;;;;5.12;82.41;96919.28;29395;236;63009;-56
2023/04/26 01:09:00;;;;;;;0.60;0.60;;;;;;;5.10;82.87;96916.03;29395;214;63004;-62
2023/04/26 01:09:32;;;;;;;0.60;0.60;;;;;;;5.11;82.99;96915.78;29395;196;63026;-62
2023/04/26 01:10:05;;;;;;;0.50;0.50;;;;;;;5.10;82.86;96916.03;29394;199;64008;-61
2023/04/26 01:10:38;;;;;;;0.60;0.60;;;;;;;5.09;83.17;96914.41;29395;213;63008;-56
2023/04/26 01:11:11;;;;;;;0.60;0.60;;;;;;;5.10;83.33;96916.84;29395;230;63005;-61
2023/04/26 01:11:44;;;;;;;0.50;0.50;;;;;;;5.09;83.26;96915.22;29395;199;63009;-56
2023/04/26 01:12:16;;;;;;;0.50;0.50;;;;;;;5.09;83.59;96915.22;29395;206;63005;-56
2023/04/26 01:12:48;;;;;;;0.50;0.50;;;;;;;5.08;83.65;96913.59;29395;245;63009;-56
2023/04/26 01:13:20;;;;;;;0.60;0.60;;;;;;;5.09;83.85;96915.22;29395;245;63005;-56
2023/04/26 01:13:52;;;;;;;0.60;0.60;;;;;;;5.07;83.70;96916.56;29394;226;64013;-56
2023/04/26 01:14:24;;;;;;;0.50;0.50;;;;;;;5.07;82.45;96917.38;29395;309;63010;-56
2023/04/26 01:14:56;;;;;;;0.60;0.60;;;;;;;5.04;83.10;96913.31;29394;205;64013;-62
2023/04/26 01:15:29;;;;;;;0.50;0.50;;;;;;;5.01;83.44;96913.00;29395;207;63004;-56
2023/04/26 01:16:01;;;;;;;0.50;0.50;;;;;;;5.01;83.58;96913.00;29394;345;64013;-56
2023/04/26 01:16:34;;;;;;;0.60;0.60;;;;;;;5.01;83.51;96913.00;29395;220;63004;-56
2023/04/26 01:17:05;;;;;;;0.50;0.50;;;;;;;5.01;83.10;96908.44;29395;283;63009;-56
2023/04/26 01:17:40;;;;;;;0.60;0.60;;;;;;;5.02;83.42;96920.00;29395;211;63004;-63
2023/04/26 01:18:13;;;;;;;0.50;0.50;;;;;;;5.03;83.21;96910.88;29395;237;63008;-56
2023/04/26 01:18:51;;;;;;;0.60;0.60;;;;;;;5.04;83.25;96913.31;29395;240;63005;-62
2023/04/26 01:19:22;;;;;;;0.50;0.50;;;;;;;5.05;83.31;96919.50;29395;230;63009;-60
2023/04/26 01:19:54;;;;;;;0.50;0.50;;;;;;;5.04;82.78;96917.88;29395;202;63005;-61
2023/04/26 01:20:25;;;;;;;0.50;0.50;;;;;;;5.04;82.84;96912.50;29395;288;63009;-56
2023/04/26 01:20:57;;;;;;;0.60;0.60;;;;;;;5.05;82.37;96906.06;29395;238;63017;-56
2023/04/26 01:21:29;;;;;;;0.50;0.50;;;;;;;5.03;82.56;96908.19;29394;238;64013;-57
2023/04/26 01:22:00;;;;;;;0.55;0.55;;;;;;;5.04;82.83;96912.50;29395;232;63005;-57
2023/04/26 01:22:35;;;;;;;0.50;0.50;;;;;;;5.04;83.09;96909.81;29394;237;64013;-56
2023/04/26 01:23:07;;;;;;;0.60;0.60;;;;;;;5.04;83.30;96907.94;29395;311;63004;-61
2023/04/26 01:23:39;;;;;;;0.60;0.60;;;;;;;5.04;83.10;96912.50;29395;225;63009;-56
2023/04/26 01:24:12;;;;;;;0.60;0.60;;;;;;;5.04;83.18;96907.13;29395;215;63004;-55
2023/04/26 01:24:46;;;;;;;0.50;0.50;;;;;;;5.02;82.49;96903.88;29395;208;63009;-56
2023/04/26 01:25:19;;;;;;;0.60;0.60;;;;;;;5.03;82.19;96913.56;29395;202;63004;-56
2023/04/26 01:25:51;;;;;;;0.50;0.50;;;;;;;5.03;82.06;96910.88;29395;201;63008;-56
2023/04/26 01:26:22;;;;;;;0.50;0.50;;;;;;;5.02;82.25;96909.25;29394;210;64009;-56
2023/04/26 01:26:53;;;;;;;0.60;0.60;;;;;;;5.04;82.15;96901.75;29395;241;63009;-56
2023/04/26 01:27:27;;;;;;;0.60;0.60;;;;;;;5.03;82.01;96902.81;29395;226;63005;-56
2023/04/26 01:28:00;;;;;;;0.60;0.60;;;;;;;5.02;81.61;96909.25;29395;247;63009;-57
2023/04/26 01:28:36;;;;;;;1.48;1.37;;;;;;;5.00;82.00;96906.00;29395;269;63005;-56
2023/04/26 01:29:17;;;;;;;0.55;0.55;;;;;;;4.96;81.82;96910.28;29395;203;63009;-62
2023/04/26 01:29:48;;;;;;;0.60;0.60;;;;;;;4.90;82.49;96901.34;29417;211;63000;-56
2023/04/26 01:30:19;;;;;;;0.50;0.50;;;;;;;4.88;82.25;96908.03;29395;363;63009;-56
2023/04/26 01:30:52;;;;;;;0.60;0.60;;;;;;;4.86;82.68;96905.63;29395;248;63004;-56
2023/04/26 01:31:23;;;;;;;0.60;0.60;;;;;;;4.85;82.82;96903.22;29394;220;64013;-57
2023/04/26 01:31:54;;;;;;;0.50;0.50;;;;;;;4.84;82.78;96904.28;29395;253;63009;-56
2023/04/26 01:32:25;;;;;;;0.50;0.50;;;;;;;4.83;82.80;96900.78;29395;220;63008;-56
2023/04/26 01:32:57;;;;;;;0.60;0.60;;;;;;;4.83;83.40;96903.47;29395;304;63004;-57
2023/04/26 01:33:28;;;;;;;0.60;0.60;;;;;;;4.84;83.38;96904.28;29395;270;63008;-56
2023/04/26 01:33:59;;;;;;;0.60;0.60;;;;;;;4.84;83.25;96901.59;29395;225;63005;-56
2023/04/26 01:34:33;;;;;;;0.60;0.60;;;;;;;4.83;83.46;96899.97;29395;308;63009;-56
2023/04/26 01:35:08;;;;;;;0.50;0.50;;;;;;;4.82;83.37;96904.53;29395;244;63016;-56
2023/04/26 01:35:40;;;;;;;0.50;0.50;;;;;;;4.81;82.93;96900.22;29395;273;63009;-57
2023/04/26 01:36:11;;;;;;;0.60;0.60;;;;;;;4.79;83.25;96899.66;29395;202;63005;-56
2023/04/26 01:36:44;;;;;;;0.52;0.52;;;;;;;4.79;83.25;96896.16;29394;212;64013;-57
2023/04/26 01:37:15;;;;;;;0.50;0.50;;;;;;;4.79;83.44;96906.91;29395;205;63004;-55
2023/04/26 01:37:47;;;;;;;0.50;0.50;;;;;;;4.78;83.19;96907.97;29395;331;63009;-56
2023/04/26 01:38:18;;;;;;;0.50;0.50;;;;;;;4.77;83.51;96901.78;29395;235;63004;-55
2023/04/26 01:38:50;;;;;;;0.50;0.50;;;;;;;4.77;83.14;96903.66;29395;196;63009;-57
2023/04/26 01:39:22;;;;;;;0.60;0.60;;;;;;;4.76;83.28;96904.72;29394;197;64004;-56
2023/04/26 01:39:53;;;;;;;0.50;0.50;;;;;;;4.75;83.24;96905.78;29395;260;63008;-56
2023/04/26 01:40:24;;;;;;;0.50;0.50;;;;;;;4.77;83.44;96900.97;29395;270;63005;-57
2023/04/26 01:40:55;;;;;;;0.60;0.60;;;;;;;4.77;83.34;96903.66;29395;212;63009;-61
2023/04/26 01:41:27;;;;;;;0.60;0.60;;;;;;;4.79;83.22;96904.22;29395;253;63017;-56
2023/04/26 01:41:59;;;;;;;0.60;0.60;;;;;;;4.78;83.22;96902.59;29394;208;64013;-57
2023/04/26 01:42:31;;;;;;;0.60;0.60;;;;;;;4.81;83.58;96907.47;29395;233;63016;-56
2023/04/26 01:43:03;;;;;;;0.50;0.50;;;;;;;4.81;83.10;96907.47;29395;240;63009;-55
2023/04/26 01:43:34;;;;;;;0.50;0.50;;;;;;;4.81;83.00;96902.09;29395;220;63005;-56
2023/04/26 01:44:07;;;;;;;0.50;0.50;;;;;;;4.83;83.05;96910.72;29395;232;63009;-56
2023/04/26 01:44:38;;;;;;;0.50;0.50;;;;;;;4.84;82.89;96912.34;29395;218;63004;-56
2023/04/26 01:45:10;;;;;;;0.60;0.60;;;;;;;4.83;82.49;96906.16;29395;247;63009;-56
2023/04/26 01:45:45;;;;;;;0.60;0.60;;;;;;;4.88;82.90;96908.03;29395;212;63016;-57
2023/04/26 01:46:16;;;;;;;0.60;0.60;;;;;;;4.93;81.75;96902.72;29395;245;63009;-56
2023/04/26 01:46:47;;;;;;;0.60;0.60;;;;;;;4.93;80.92;96905.41;29395;263;63004;-57
2023/04/26 01:47:18;;;;;;;0.60;0.60;;;;;;;4.91;80.10;96910.22;29394;211;64013;-56
2023/04/26 01:47:53;;;;;;;0.60;0.60;;;;;;;4.88;80.26;96908.03;29395;202;63005;-56
2023/04/26 01:48:24;;;;;;;0.52;0.52;;;;;;;4.83;80.88;96905.34;29395;284;63009;-57
2023/04/26 01:48:56;;;;;;;0.60;0.60;;;;;;;4.77;81.13;96907.16;29395;284;63005;-56
2023/04/26 01:49:28;;;;;;;0.60;0.60;;;;;;;4.74;81.83;96909.56;29395;223;63009;-56
2023/04/26 01:49:59;;;;;;;0.50;0.50;;;;;;;4.71;82.35;96909.00;29395;200;63005;-56
2023/04/26 01:50:31;;;;;;;0.52;0.52;;;;;;;4.68;82.85;96909.50;29395;371;63009;-56
2023/04/26 01:51:04;;;;;;;0.60;0.60;;;;;;;4.64;82.62;96903.00;29395;245;63005;-56
2023/04/26 01:51:36;;;;;;;0.50;0.50;;;;;;;4.62;82.75;96907.81;29395;302;63009;-56
2023/04/26 01:52:07;;;;;;;0.60;0.60;;;;;;;4.65;82.72;96904.63;29394;231;64009;-56
2023/04/26 01:52:39;;;;;;;0.60;0.60;;;;;;;4.66;82.46;96910.81;29395;267;63009;-56
2023/04/26 01:53:10;;;;;;;0.60;0.60;;;;;;;4.65;81.58;96910.00;29395;236;63004;-56
2023/04/26 01:53:41;;;;;;;0.50;0.50;;;;;;;4.63;81.62;96909.44;29395;204;63009;-57
2023/04/26 01:54:12;;;;;;;0.60;0.60;;;;;;;4.64;82.24;96903.00;29395;218;63004;-57
2023/04/26 01:54:44;;;;;;;0.50;0.50;;;;;;;4.65;81.71;96907.31;29395;197;63008;-57
2023/04/26 01:55:17;;;;;;;0.50;0.50;;;;;;;4.65;81.93;96899.25;29395;313;63004;-57
2023/04/26 01:55:48;;;;;;;0.50;0.50;;;;;;;4.66;81.80;96910.81;29395;350;63009;-57
2023/04/26 01:56:20;;;;;;;0.55;0.55;;;;;;;4.67;82.02;96907.88;29394;204;64009;-56
2023/04/26 01:56:51;;;;;;;0.60;0.60;;;;;;;4.67;81.61;96907.88;29395;222;63009;-55
2023/04/26 01:57:22;;;;;;;0.52;0.52;;;;;;;4.68;81.01;96906.00;29394;221;64009;-56
2023/04/26 01:57:53;;;;;;;0.60;0.60;;;;;;;4.68;81.27;96906.00;29395;208;63009;-56
2023/04/26 01:58:25;;;;;;;0.60;0.60;;;;;;;4.66;81.42;96908.94;29395;219;63005;-56
2023/04/26 01:58:58;;;;;;;0.50;0.50;;;;;;;4.66;81.33;96911.63;29395;279;63009;-56
2023/04/26 01:59:29;;;;;;;0.60;0.60;;;;;;;4.65;81.45;96904.63;29394;325;64009;-56
2023/04/26 02:00:01;;;;;;;0.50;0.50;;;;;;;4.65;81.91;96910.00;29395;226;63009;-61
2023/04/26 02:00:33;;;;;;;0.60;0.60;;;;;;;4.62;81.85;96904.31;29394;215;64009;-56
2023/04/26 02:01:06;;;;;;;0.60;0.60;;;;;;;4.62;81.90;96910.50;29395;252;63009;-56
2023/04/26 02:01:42;;;;;;;0.50;0.50;;;;;;;4.59;82.36;96900.28;29395;224;63004;-56
2023/04/26 02:02:16;;;;;;;0.55;0.55;;;;;;;4.58;82.32;96903.22;29395;310;63008;-56
2023/04/26 02:02:47;;;;;;;0.50;0.50;;;;;;;4.55;82.96;96904.53;29395;305;63004;-56
2023/04/26 02:03:18;;;;;;;0.50;0.50;;;;;;;4.55;82.81;96901.03;29395;203;63009;-56
2023/04/26 02:03:50;;;;;;;0.50;0.50;;;;;;;4.57;83.19;96905.09;29395;204;63005;-56
2023/04/26 02:04:22;;;;;;;0.50;0.50;;;;;;;4.57;83.11;96902.41;29395;357;63009;-56
2023/04/26 02:04:54;;;;;;;0.50;0.50;;;;;;;4.58;82.63;96904.03;29395;313;63005;-56
2023/04/26 02:05:27;;;;;;;0.60;0.60;;;;;;;4.55;82.47;96909.91;29395;297;63008;-56
2023/04/26 02:05:59;;;;;;;0.50;0.50;;;;;;;4.51;82.93;96903.41;29394;368;64009;-57
2023/04/26 02:06:31;;;;;;;0.50;0.50;;;;;;;4.48;83.12;96901.25;29395;246;63009;-56
2023/04/26 02:07:02;;;;;;;2.10;2.00;;;;;;;4.48;82.85;96898.56;29395;212;63005;-56
2023/04/26 02:07:35;;;;;;;0.60;0.60;;;;;;;4.50;82.58;96901.00;29395;212;63009;-56
2023/04/26 02:08:09;;;;;;;0.57;0.57;;;;;;;4.47;82.56;96898.81;29394;225;64009;-57
2023/04/26 02:08:43;;;;;;;0.50;0.50;;;;;;;4.45;82.53;96899.06;29395;278;63009;-57
2023/04/26 02:09:15;;;;;;;0.60;0.60;;;;;;;4.45;83.00;96898.25;29395;216;63004;-56
2023/04/26 02:09:46;;;;;;;0.50;0.50;;;;;;;4.44;83.22;96902.81;29395;380;63008;-57
2023/04/26 02:10:18;;;;;;;0.60;0.60;;;;;;;4.43;83.30;96895.81;29395;284;63000;-62
2023/04/26 02:10:49;;;;;;;0.60;0.60;;;;;;;4.45;83.42;96898.25;29395;360;63009;-56
2023/04/26 02:11:21;;;;;;;0.60;0.60;;;;;;;4.45;83.75;96899.06;29395;259;63005;-56
2023/04/26 02:11:53;;;;;;;0.60;0.60;;;;;;;4.45;83.41;96900.94;29395;284;63009;-56
2023/04/26 02:12:25;;;;;;;0.55;0.55;;;;;;;4.41;82.67;96895.28;29395;219;63005;-56
2023/04/26 02:12:57;;;;;;;0.50;0.50;;;;;;;4.40;83.40;96900.91;29395;203;63009;-56
2023/04/26 02:13:30;;;;;;;0.60;0.60;;;;;;;4.38;83.90;96887.72;29394;211;64009;-57
2023/04/26 02:14:02;;;;;;;0.60;0.60;;;;;;;4.37;83.99;96894.97;29395;214;63009;-62
2023/04/26 02:14:33;;;;;;;0.60;0.60;;;;;;;4.38;84.59;96895.78;29395;279;63005;-56
2023/04/26 02:15:05;;;;;;;0.60;0.60;;;;;;;4.38;84.37;96899.28;29395;240;63009;-56
2023/04/26 02:15:36;;;;;;;0.60;0.60;;;;;;;4.39;84.18;96892.03;29395;197;63004;-56
2023/04/26 02:16:08;;;;;;;0.50;0.50;;;;;;;4.37;83.92;96891.47;29395;238;63009;-57
2023/04/26 02:16:42;;;;;;;0.50;0.50;;;;;;;4.34;83.18;96898.16;29395;201;63004;-56
2023/04/26 02:17:13;;;;;;;0.60;0.60;;;;;;;4.33;83.82;96895.72;29395;199;63008;-56
2023/04/26 02:17:44;;;;;;;0.50;0.50;;;;;;;4.34;83.87;96891.97;29395;213;63004;-57
2023/04/26 02:18:20;;;;;;;0.60;0.60;;;;;;;4.35;83.94;96893.59;29395;264;63009;-56
2023/04/26 02:18:52;;;;;;;0.60;0.60;;;;;;;4.33;83.98;96896.53;29394;227;64009;-56
2023/04/26 02:19:23;;;;;;;0.60;0.60;;;;;;;4.31;84.13;96887.09;29395;238;63009;-58
2023/04/26 02:19:55;;;;;;;0.60;0.60;;;;;;;4.30;84.48;96896.22;29395;258;63005;-57
2023/04/26 02:20:27;;;;;;;0.57;0.57;;;;;;;4.30;84.08;96896.22;29395;214;63009;-62
2023/04/26 02:20:58;;;;;;;0.60;0.60;;;;;;;4.30;84.41;96898.91;29395;256;63005;-56
2023/04/26 02:21:30;;;;;;;0.60;0.60;;;;;;;4.27;83.70;96891.34;29395;247;63009;-56
2023/04/26 02:22:05;;;;;;;0.60;0.60;;;;;;;4.25;84.13;96893.47;29395;293;63005;-56
2023/04/26 02:22:36;;;;;;;0.60;0.60;;;;;;;4.26;83.90;96895.09;29395;238;63009;-56
2023/04/26 02:23:09;;;;;;;0.60;0.60;;;;;;;4.26;84.09;96901.28;29395;229;63004;-57
2023/04/26 02:23:40;;;;;;;0.60;0.60;;;;;;;4.26;84.01;96895.09;29395;276;63013;-56
2023/04/26 02:24:11;;;;;;;0.60;0.60;;;;;;;4.24;84.47;96894.53;29394;196;64009;-55
2023/04/26 02:24:42;;;;;;;0.60;0.60;;;;;;;4.23;84.31;96898.28;29395;326;63009;-56
2023/04/26 02:25:14;;;;;;;0.50;0.50;;;;;;;4.22;84.56;96889.41;29395;201;63004;-56
2023/04/26 02:25:47;;;;;;;0.60;0.60;;;;;;;4.21;84.38;96895.03;29395;227;63009;-56
2023/04/26 02:26:19;;;;;;;0.60;0.60;;;;;;;4.19;84.81;96892.59;29395;212;63005;-56
2023/04/26 02:26:51;;;;;;;0.60;0.60;;;;;;;4.16;84.79;96895.00;29395;197;63009;-56
2023/04/26 02:27:23;;;;;;;0.60;0.60;;;;;;;4.15;84.80;96891.50;29395;197;63005;-61
2023/04/26 02:27:55;;;;;;;0.60;0.60;;;;;;;4.13;85.28;96895.50;29394;197;64013;-56
2023/04/26 02:28:27;;;;;;;0.60;0.60;;;;;;;4.13;85.89;96898.19;29395;208;63005;-56
2023/04/26 02:28:58;;;;;;;0.50;0.50;;;;;;;4.09;86.22;96895.19;29395;230;63009;-56
2023/04/26 02:29:30;;;;;;;0.60;0.60;;;;;;;4.06;86.74;96893.00;29395;249;63005;-57
2023/04/26 02:30:03;;;;;;;0.60;0.60;;;;;;;4.05;86.58;96896.75;29395;218;63009;-57
2023/04/26 02:30:34;;;;;;;0.57;0.57;;;;;;;4.02;87.24;96895.38;29395;196;63004;-56
2023/04/26 02:31:05;;;;;;;0.60;0.60;;;;;;;3.98;87.72;96894.25;29395;196;63009;-57
2023/04/26 02:31:37;;;;;;;0.70;0.70;;;;;;;3.95;87.37;96894.75;29395;209;63004;-56
2023/04/26 02:32:08;;;;;;;0.60;0.60;;;;;;;3.95;87.39;96894.75;29395;234;63025;-56
2023/04/26 02:32:40;;;;;;;0.60;0.60;;;;;;;3.92;87.30;96895.25;29395;221;63004;-55
2023/04/26 02:33:11;;;;;;;0.60;0.60;;;;;;;3.91;87.14;96896.31;29394;216;64014;-56
2023/04/26 02:33:42;;;;;;;0.60;0.60;;;;;;;3.92;87.43;96895.25;29394;199;64009;-56
2023/04/26 02:34:13;;;;;;;0.60;0.60;;;;;;;3.92;87.05;96895.25;29395;386;63009;-56
2023/04/26 02:34:48;;;;;;;0.50;0.50;;;;;;;3.94;87.38;96898.50;29395;226;63005;-56
2023/04/26 02:35:20;;;;;;;0.60;0.60;;;;;;;3.93;87.27;96899.56;29395;378;63009;-56
2023/04/26 02:35:51;;;;;;;0.57;0.57;;;;;;;3.92;87.40;96900.63;29395;329;63005;-57
2023/04/26 02:36:24;;;;;;;0.60;0.60;;;;;;;3.90;87.24;96900.06;29395;353;63009;-56